createdAt,value
2019-05-09T00:00:06.680Z,97.10
2019-05-09T00:04:09.069Z,96.80
2019-05-09T00:08:11.070Z,96.60
2019-05-09T00:12:14.256Z,96.60
2019-05-09T00:16:17.369Z,96.40
2019-05-09T00:20:25.437Z,96.00
2019-05-09T00:24:27.370Z,96.10
2019-05-09T00:28:33.731Z,96.00
2019-05-09T00:32:36.239Z,96.20
2019-05-09T00:36:38.410Z,96.20
2019-05-09T00:40:54.639Z,96.00
2019-05-09T00:44:54.103Z,96.20
2019-05-09T00:48:57.694Z,96.30
2019-05-09T00:52:59.622Z,96.20
2019-05-09T00:57:03.235Z,95.60
2019-05-09T01:01:05.300Z,95.70
2019-05-09T01:05:07.415Z,95.30
2019-05-09T01:09:09.404Z,95.80
2019-05-09T01:13:11.344Z,95.80
2019-05-09T01:17:13.760Z,95.60
2019-05-09T01:21:16.585Z,95.80
2019-05-09T01:25:18.570Z,95.70
2019-05-09T01:29:20.513Z,95.90
2019-05-09T01:33:24.745Z,96.10
2019-05-09T01:37:26.753Z,96.20
2019-05-09T01:41:33.426Z,96.20
2019-05-09T01:45:34.197Z,96.50
2019-05-09T01:49:36.145Z,96.70
2019-05-09T01:53:43.718Z,97.50
2019-05-09T01:57:48.012Z,97.00
2019-05-09T02:01:50.308Z,97.20
2019-05-09T02:05:54.454Z,97.20
2019-05-09T02:09:56.463Z,97.70
2019-05-09T02:13:59.393Z,97.80
2019-05-09T02:18:05.899Z,97.90
2019-05-09T02:22:25.812Z,97.50
2019-05-09T02:26:27.745Z,97.40
2019-05-09T02:30:29.690Z,97.10
2019-05-09T02:34:34.740Z,97.10
2019-05-09T02:38:35.251Z,97.50
2019-05-09T02:42:39.562Z,97.60
2019-05-09T02:46:42.913Z,97.10
2019-05-09T02:50:44.854Z,97.20
2019-05-09T02:54:49.847Z,97.40
2019-05-09T02:58:52.176Z,97.50
2019-05-09T03:02:59.541Z,97.60
2019-05-09T03:07:01.757Z,97.90
2019-05-09T03:11:03.757Z,97.90
2019-05-09T03:15:09.174Z,97.80
2019-05-09T03:19:11.337Z,97.70
2019-05-09T03:23:14.911Z,97.80
2019-05-09T03:27:20.949Z,97.90
2019-05-09T03:31:29.860Z,97.80
2019-05-09T03:35:30.933Z,97.80
2019-05-09T03:39:32.869Z,97.30
2019-05-09T03:43:34.809Z,97.30
2019-05-09T03:47:50.539Z,97.10
2019-05-09T03:51:52.473Z,97.20
2019-05-09T03:55:57.688Z,97.30
2019-05-09T03:59:59.806Z,97.20
2019-05-09T04:04:01.740Z,97.00
2019-05-09T04:08:18.422Z,97.20
2019-05-09T04:12:21.616Z,97.00
2019-05-09T04:16:25.043Z,97.10
2019-05-09T04:20:27.725Z,97.20
2019-05-09T04:24:30.870Z,97.20
2019-05-09T04:28:32.865Z,97.70
2019-05-09T04:32:34.910Z,97.60
2019-05-09T04:36:39.731Z,98.00
2019-05-09T04:40:44.873Z,97.70
2019-05-09T04:44:49.606Z,97.20
2019-05-09T04:48:54.113Z,97.20
2019-05-09T04:52:54.265Z,97.10
2019-05-09T04:56:57.402Z,96.70
2019-05-09T05:01:19.617Z,96.90
2019-05-09T05:05:19.934Z,96.80
2019-05-09T05:09:21.922Z,96.50
2019-05-09T05:13:26.749Z,96.10
2019-05-09T05:17:30.252Z,96.30
2019-05-09T05:21:31.154Z,96.20
2019-05-09T05:25:33.079Z,96.40
2019-05-09T05:29:35.037Z,96.20
2019-05-09T05:33:38.249Z,95.30
2019-05-09T05:37:40.323Z,95.10
2019-05-09T05:41:42.254Z,95.00
2019-05-09T05:45:47.961Z,95.00
2019-05-09T05:49:50.619Z,94.30
2019-05-09T05:53:52.566Z,94.20
2019-05-09T05:57:54.519Z,94.30
2019-05-09T06:01:58.344Z,93.90
2019-05-09T06:06:00.088Z,94.20
2019-05-09T06:10:02.038Z,93.80
2019-05-09T06:14:11.081Z,93.40
2019-05-09T06:18:08.911Z,93.30
2019-05-09T06:22:10.851Z,93.70
2019-05-09T06:26:12.796Z,93.20
2019-05-09T06:30:19.314Z,93.10
2019-05-09T06:34:21.251Z,93.90
2019-05-09T06:38:23.194Z,93.20
2019-05-09T06:42:25.565Z,93.30
2019-05-09T06:46:31.978Z,93.10
2019-05-09T06:50:33.901Z,93.00
2019-05-09T06:54:35.834Z,92.90
2019-05-09T06:58:38.866Z,92.10
2019-05-09T07:02:42.429Z,92.60
2019-05-09T07:06:48.459Z,91.50
2019-05-09T07:10:50.711Z,91.60
2019-05-09T07:14:52.641Z,91.70
2019-05-09T07:18:54.607Z,90.70
2019-05-09T07:22:58.334Z,89.40
2019-05-09T07:27:00.199Z,87.80
2019-05-09T07:31:07.682Z,88.10
2019-05-09T07:35:18.796Z,87.40
2019-05-09T07:39:20.855Z,85.90
2019-05-09T07:43:22.789Z,87.60
2019-05-09T07:47:24.737Z,86.80
2019-05-09T07:51:27.694Z,85.10
2019-05-09T07:55:29.620Z,84.40
2019-05-09T07:59:31.551Z,81.40
2019-05-09T08:03:33.505Z,80.90
2019-05-09T08:07:37.889Z,83.10
2019-05-09T08:11:39.233Z,82.20
2019-05-09T08:15:41.305Z,82.70
2019-05-09T08:19:43.299Z,78.20
2019-05-09T08:23:45.232Z,76.70
2019-05-09T08:27:48.229Z,76.30
2019-05-09T08:31:50.731Z,75.30
2019-05-09T08:35:52.947Z,76.40
2019-05-09T08:39:54.903Z,78.00
2019-05-09T08:43:57.580Z,75.60
2019-05-09T08:47:59.697Z,75.10
2019-05-09T08:52:13.091Z,76.20
2019-05-09T08:56:09.023Z,76.70
2019-05-09T09:00:11.999Z,78.00
2019-05-09T09:04:14.021Z,79.60
2019-05-09T09:08:18.340Z,80.00
2019-05-09T09:12:31.335Z,83.10
2019-05-09T09:16:23.630Z,83.70
2019-05-09T09:20:25.571Z,83.90
2019-05-09T09:24:28.271Z,80.10
2019-05-09T09:28:30.359Z,78.40
2019-05-09T09:32:32.279Z,78.50
2019-05-09T09:36:34.170Z,78.40
2019-05-09T09:40:38.300Z,79.00
2019-05-09T09:44:39.776Z,76.70
2019-05-09T09:48:41.701Z,75.10
2019-05-09T09:52:43.836Z,74.50
2019-05-09T09:56:47.916Z,73.90
2019-05-09T10:00:53.616Z,74.20
2019-05-09T10:04:55.607Z,75.50
2019-05-09T10:08:58.074Z,73.70
2019-05-09T10:13:03.721Z,74.90
2019-05-09T10:17:05.543Z,73.70
2019-05-09T10:21:07.279Z,69.30
2019-05-09T10:25:09.841Z,62.60
2019-05-09T10:29:11.798Z,65.60
2019-05-09T10:33:13.961Z,65.50
2019-05-09T10:37:18.595Z,65.00
2019-05-09T10:41:20.597Z,66.20
2019-05-09T10:45:24.177Z,67.90
2019-05-09T10:49:26.069Z,69.20
2019-05-09T10:53:28.451Z,65.80
2019-05-09T10:57:32.275Z,63.90
2019-05-09T11:01:34.089Z,66.20
2019-05-09T11:05:36.010Z,64.00
2019-05-09T11:09:39.025Z,61.10
2019-05-09T11:13:41.043Z,61.50
2019-05-09T11:17:42.942Z,57.70
2019-05-09T11:21:44.856Z,51.50
2019-05-09T11:25:47.263Z,53.60
2019-05-09T11:29:52.454Z,50.40
2019-05-09T11:33:54.435Z,52.00
2019-05-09T11:37:58.667Z,46.70
2019-05-09T11:42:01.512Z,47.80
2019-05-09T11:46:03.783Z,49.00
2019-05-09T11:50:08.970Z,50.20
2019-05-09T11:54:11.078Z,49.20
2019-05-09T11:58:14.280Z,48.00
2019-05-09T12:02:18.070Z,45.60
2019-05-09T12:06:20.500Z,48.00
2019-05-09T12:10:23.509Z,48.10
2019-05-09T12:14:27.506Z,49.30
2019-05-09T12:18:29.022Z,49.70
2019-05-09T12:22:30.944Z,51.50
2019-05-09T12:26:32.901Z,54.50
2019-05-09T12:30:37.895Z,57.60
2019-05-09T12:34:39.378Z,67.50
2019-05-09T12:38:46.039Z,78.40
2019-05-09T12:42:46.022Z,83.80
2019-05-09T12:46:48.753Z,84.80
2019-05-09T12:50:50.951Z,86.10
2019-05-09T12:54:52.872Z,79.50
2019-05-09T12:58:54.789Z,77.00
2019-05-09T13:02:59.238Z,74.10
2019-05-09T13:07:00.434Z,78.10
2019-05-09T13:11:02.709Z,68.50
2019-05-09T13:15:05.870Z,65.70
2019-05-09T13:19:10.167Z,60.40
2019-05-09T13:23:12.071Z,58.80
2019-05-09T13:27:15.362Z,58.80
2019-05-09T13:31:18.241Z,61.10
2019-05-09T13:35:20.437Z,62.70
2019-05-09T13:39:22.354Z,66.60
2019-05-09T13:43:24.260Z,66.50
2019-05-09T13:47:28.073Z,68.70
2019-05-09T13:51:29.782Z,71.30
2019-05-09T13:55:31.699Z,71.20
2019-05-09T13:59:33.609Z,73.30
2019-05-09T14:03:38.613Z,70.50
2019-05-09T14:07:40.059Z,68.90
2019-05-09T14:11:41.981Z,63.90
2019-05-09T14:15:44.269Z,60.90
2019-05-09T14:19:50.291Z,61.80
2019-05-09T14:24:06.612Z,61.10
2019-05-09T14:27:54.531Z,59.30
2019-05-09T14:31:56.471Z,58.60
2019-05-09T14:35:59.444Z,61.70
2019-05-09T14:40:04.402Z,60.70
2019-05-09T14:44:05.150Z,60.80
2019-05-09T14:48:08.032Z,61.70
2019-05-09T14:52:10.074Z,60.80
2019-05-09T14:56:11.985Z,60.90
2019-05-09T15:00:14.398Z,60.50
2019-05-09T15:04:18.700Z,58.70
2019-05-09T15:08:19.900Z,60.50
2019-05-09T15:12:21.821Z,61.40
2019-05-09T15:16:23.730Z,73.30
2019-05-09T15:20:28.105Z,79.20
2019-05-09T15:24:30.799Z,85.70
2019-05-09T15:28:32.725Z,90.30
2019-05-09T15:32:34.619Z,92.60
2019-05-09T15:36:37.939Z,93.50
2019-05-09T15:40:40.046Z,94.00
2019-05-09T15:44:41.967Z,93.30
2019-05-09T15:48:43.869Z,92.90
2019-05-09T15:52:46.759Z,93.50
2019-05-09T15:56:48.679Z,93.40
2019-05-09T16:00:50.974Z,93.30
2019-05-09T16:04:52.892Z,93.80
2019-05-09T16:08:54.827Z,93.90
2019-05-09T16:12:56.815Z,92.80
2019-05-09T16:16:58.707Z,93.50
2019-05-09T16:21:00.657Z,93.50
2019-05-09T16:25:03.703Z,93.50
2019-05-09T16:29:08.304Z,94.10
2019-05-09T16:33:09.441Z,93.80
2019-05-09T16:37:11.416Z,93.60
2019-05-09T16:41:15.175Z,94.20
2019-05-09T16:45:18.395Z,94.60
2019-05-09T16:49:20.314Z,94.70
2019-05-09T16:53:22.216Z,94.40
2019-05-09T16:57:24.784Z,94.40
2019-05-09T17:01:28.389Z,94.00
2019-05-09T17:05:31.423Z,94.90
2019-05-09T17:09:37.729Z,94.30
2019-05-09T17:13:39.850Z,94.50
2019-05-09T17:17:41.924Z,94.80
2019-05-09T17:21:51.495Z,95.40
2019-05-09T17:25:53.399Z,94.90
2019-05-09T17:29:55.403Z,95.10
2019-05-09T17:33:58.041Z,94.30
2019-05-09T17:38:00.645Z,95.20
2019-05-09T17:42:02.663Z,95.60
2019-05-09T17:46:04.701Z,95.20
2019-05-09T17:50:07.959Z,95.10
2019-05-09T17:54:09.884Z,94.90
2019-05-09T17:58:26.147Z,95.50
2019-05-09T18:02:17.463Z,95.70
2019-05-09T18:06:19.367Z,96.10
2019-05-09T18:10:22.150Z,95.60
2019-05-09T18:14:24.075Z,96.60
2019-05-09T18:18:28.427Z,96.00
2019-05-09T18:22:29.738Z,96.50
2019-05-09T18:26:31.635Z,96.50
2019-05-09T18:30:33.742Z,96.60
2019-05-09T18:34:37.866Z,95.80
2019-05-09T18:38:39.294Z,95.70
2019-05-09T18:42:41.266Z,95.80
2019-05-09T18:46:55.024Z,95.80
2019-05-09T18:50:57.187Z,96.40
2019-05-09T18:54:59.074Z,96.10
2019-05-09T18:59:01.558Z,96.10
2019-05-09T19:03:03.454Z,96.60
2019-05-09T19:07:20.727Z,96.60
2019-05-09T19:11:09.035Z,96.40
2019-05-09T19:15:19.415Z,96.40
2019-05-09T19:19:25.459Z,96.60
2019-05-09T19:23:27.441Z,97.10
2019-05-09T19:27:29.343Z,97.10
2019-05-09T19:31:31.272Z,96.90
2019-05-09T19:35:33.263Z,97.10
2019-05-09T19:39:35.209Z,97.20
2019-05-09T19:43:37.108Z,96.90
2019-05-09T19:47:39.022Z,96.60
2019-05-09T19:51:42.057Z,96.80
2019-05-09T19:55:43.976Z,96.70
2019-05-09T19:59:46.167Z,96.90
2019-05-09T20:03:48.705Z,96.60
2019-05-09T20:07:51.904Z,96.60
2019-05-09T20:11:58.134Z,96.70
2019-05-09T20:16:00.043Z,97.10
2019-05-09T20:20:01.965Z,96.60
2019-05-09T20:24:04.711Z,96.70
2019-05-09T20:28:07.294Z,96.60
2019-05-09T20:32:09.279Z,96.70
2019-05-09T20:36:11.506Z,96.60
2019-05-09T20:40:14.461Z,96.40
2019-05-09T20:44:16.557Z,96.30
2019-05-09T20:48:18.717Z,96.20
2019-05-09T20:52:21.853Z,96.40
2019-05-09T20:56:24.092Z,96.60
2019-05-09T21:00:26.502Z,96.70
2019-05-09T21:04:28.582Z,97.00
2019-05-09T21:08:30.732Z,96.90
2019-05-09T21:12:32.894Z,96.10
2019-05-09T21:16:35.088Z,97.00
2019-05-09T21:20:38.139Z,96.70
2019-05-09T21:24:40.237Z,96.60
2019-05-09T21:28:42.330Z,96.70
2019-05-09T21:32:44.517Z,96.70
2019-05-09T21:36:46.403Z,96.90
2019-05-09T21:40:48.319Z,96.70
2019-05-09T21:44:51.349Z,96.70
2019-05-09T21:48:53.258Z,96.20
2019-05-09T21:52:56.256Z,96.60
2019-05-09T21:56:58.168Z,96.20
2019-05-09T22:01:01.923Z,96.20
2019-05-09T22:05:06.215Z,96.40
2019-05-09T22:09:10.283Z,96.40
2019-05-09T22:13:12.627Z,96.30
2019-05-09T22:17:25.434Z,96.30
2019-05-09T22:21:27.404Z,96.10
2019-05-09T22:25:29.313Z,96.30
2019-05-09T22:29:31.230Z,96.30
2019-05-09T22:33:33.139Z,96.10
2019-05-09T22:37:35.124Z,96.40
2019-05-09T22:41:37.052Z,96.30
2019-05-09T22:45:38.950Z,96.30
2019-05-09T22:49:40.956Z,96.30
2019-05-09T22:53:42.870Z,96.10
2019-05-09T22:57:44.768Z,96.00
2019-05-09T23:01:46.680Z,96.30
2019-05-09T23:05:48.658Z,96.60
2019-05-09T23:09:51.202Z,96.70
2019-05-09T23:13:53.129Z,96.60
2019-05-09T23:17:55.021Z,96.40
2019-05-09T23:21:56.934Z,96.50
2019-05-09T23:25:59.118Z,96.60
2019-05-09T23:30:01.427Z,96.40
2019-05-09T23:34:03.354Z,96.50
2019-05-09T23:38:05.251Z,96.20
2019-05-09T23:42:07.242Z,96.40
2019-05-09T23:46:09.154Z,96.40
2019-05-09T23:50:12.353Z,96.40
2019-05-09T23:54:45.032Z,96.10
2019-05-09T23:58:55.511Z,96.60
